VLG1292 LEBL-LECO
Flight info
| Callsign | VLG1292 |
|---|---|
| Flight time | 1h 24m |
| Altitude | 32000 |
| Route | LOBAR N725 LOMDA |
| Aircraft | A320/M-SDFGHILORVWXY/LB1 |
Departure
| Time | 2026-05-05 09:33 |
|---|---|
| Airport | Josep Tarradellas Barcelona-El Prat Airport (LEBL) |
Arrival
| Time | 2026-05-05 10:58 |
|---|---|
| Airport | A Coruña Airport (LECO) |
| Time | Latitude | Longitude | Altitude | Speed | Heading |
|---|---|---|---|---|---|
| 2026-05-05 08:42 | 41.29055 | 2.07683 | 19 ft | 0 kts | 155° |
| 2026-05-05 09:21 | 41.29075 | 2.07671 | 19 ft | 4 kts | 155° |
| 2026-05-05 09:21 | 41.29099 | 2.07656 | 19 ft | 4 kts | 155° |
| 2026-05-05 09:22 | 41.29123 | 2.07645 | 19 ft | 4 kts | 183° |
| 2026-05-05 09:22 | 41.29146 | 2.07657 | 19 ft | 4 kts | 213° |
| 2026-05-05 09:22 | 41.29165 | 2.07661 | 20 ft | 4 kts | 156° |
| 2026-05-05 09:22 | 41.29180 | 2.07652 | 19 ft | 0 kts | 156° |
| 2026-05-05 09:26 | 41.29178 | 2.07654 | 19 ft | 3 kts | 156° |
| 2026-05-05 09:26 | 41.29157 | 2.07706 | 20 ft | 8 kts | 73° |
| 2026-05-05 09:26 | 41.29186 | 2.07788 | 19 ft | 11 kts | 65° |
| 2026-05-05 09:27 | 41.29223 | 2.07894 | 21 ft | 14 kts | 66° |
| 2026-05-05 09:27 | 41.29267 | 2.08027 | 21 ft | 17 kts | 65° |
| 2026-05-05 09:27 | 41.29320 | 2.08181 | 21 ft | 19 kts | 65° |
| 2026-05-05 09:27 | 41.29361 | 2.08301 | 19 ft | 12 kts | 66° |
| 2026-05-05 09:28 | 41.29336 | 2.08397 | 19 ft | 13 kts | 151° |
| 2026-05-05 09:28 | 41.29245 | 2.08451 | 23 ft | 15 kts | 155° |
| 2026-05-05 09:28 | 41.29134 | 2.08518 | 17 ft | 20 kts | 155° |
| 2026-05-05 09:28 | 41.28996 | 2.08601 | 18 ft | 22 kts | 155° |
| 2026-05-05 09:29 | 41.28898 | 2.08660 | 16 ft | 11 kts | 155° |
| 2026-05-05 09:29 | 41.28866 | 2.08736 | 17 ft | 11 kts | 76° |
| 2026-05-05 09:29 | 41.28902 | 2.08847 | 18 ft | 15 kts | 65° |
| 2026-05-05 09:29 | 41.28949 | 2.08984 | 18 ft | 18 kts | 65° |
| 2026-05-05 09:30 | 41.29005 | 2.09145 | 17 ft | 21 kts | 65° |
| 2026-05-05 09:30 | 41.29067 | 2.09329 | 18 ft | 23 kts | 65° |
| 2026-05-05 09:30 | 41.29137 | 2.09532 | 17 ft | 25 kts | 65° |
| 2026-05-05 09:30 | 41.29213 | 2.09754 | 18 ft | 27 kts | 65° |
| 2026-05-05 09:31 | 41.29270 | 2.09915 | 17 ft | 14 kts | 57° |
| 2026-05-05 09:31 | 41.29322 | 2.10040 | 19 ft | 15 kts | 71° |
| 2026-05-05 09:31 | 41.29299 | 2.10171 | 14 ft | 12 kts | 112° |
| 2026-05-05 09:31 | 41.29265 | 2.10277 | 14 ft | 10 kts | 127° |
| 2026-05-05 09:32 | 41.29210 | 2.10290 | 15 ft | 7 kts | 224° |
| 2026-05-05 09:32 | 41.29167 | 2.10166 | 17 ft | 39 kts | 245° |
| 2026-05-05 09:32 | 41.28950 | 2.09536 | 20 ft | 107 kts | 245° |
| 2026-05-05 09:32 | 41.28561 | 2.08396 | 25 ft | 161 kts | 246° |
| 2026-05-05 09:33 | 41.28095 | 2.07019 | 565 ft | 163 kts | 247° |
| 2026-05-05 09:33 | 41.27327 | 2.05908 | 1141 ft | 172 kts | 207° |
| 2026-05-05 09:33 | 41.26096 | 2.05526 | 1472 ft | 194 kts | 188° |
| 2026-05-05 09:33 | 41.24706 | 2.05238 | 1781 ft | 216 kts | 189° |
| 2026-05-05 09:34 | 41.23157 | 2.04886 | 2205 ft | 233 kts | 190° |
| 2026-05-05 09:34 | 41.21559 | 2.04510 | 3081 ft | 233 kts | 189° |
| 2026-05-05 09:34 | 41.19962 | 2.04108 | 3902 ft | 235 kts | 194° |
| 2026-05-05 09:34 | 41.18497 | 2.03123 | 4676 ft | 240 kts | 219° |
| 2026-05-05 09:35 | 41.17388 | 2.01452 | 5486 ft | 243 kts | 230° |
| 2026-05-05 09:35 | 41.15458 | 1.97677 | 6779 ft | 267 kts | 251° |
| 2026-05-05 09:35 | 41.15378 | 1.95168 | 7396 ft | 281 kts | 282° |
| 2026-05-05 09:36 | 41.16157 | 1.92769 | 8273 ft | 284 kts | 294° |
| 2026-05-05 09:36 | 41.17047 | 1.90433 | 9158 ft | 285 kts | 294° |
| 2026-05-05 09:36 | 41.17935 | 1.88075 | 9977 ft | 287 kts | 293° |
| 2026-05-05 09:36 | 41.18837 | 1.85652 | 10457 ft | 303 kts | 292° |
| 2026-05-05 09:37 | 41.19798 | 1.83048 | 10712 ft | 324 kts | 292° |
| 2026-05-05 09:37 | 41.20789 | 1.80363 | 11295 ft | 331 kts | 292° |
| 2026-05-05 09:37 | 41.21822 | 1.77579 | 12020 ft | 334 kts | 292° |
| 2026-05-05 09:37 | 41.22855 | 1.74808 | 12754 ft | 337 kts | 292° |
| 2026-05-05 09:38 | 41.23902 | 1.72007 | 13492 ft | 339 kts | 291° |
| 2026-05-05 09:38 | 41.24952 | 1.69191 | 14191 ft | 341 kts | 291° |
| 2026-05-05 09:38 | 41.26006 | 1.66359 | 14861 ft | 343 kts | 291° |
| 2026-05-05 09:38 | 41.27065 | 1.63505 | 15530 ft | 345 kts | 291° |
| 2026-05-05 09:39 | 41.28131 | 1.60631 | 16175 ft | 348 kts | 291° |
| 2026-05-05 09:39 | 41.29205 | 1.57737 | 16819 ft | 350 kts | 291° |
| 2026-05-05 09:39 | 41.30284 | 1.54826 | 17428 ft | 352 kts | 290° |
| 2026-05-05 09:39 | 41.31367 | 1.51901 | 18018 ft | 354 kts | 290° |
| 2026-05-05 09:40 | 41.32453 | 1.48954 | 18605 ft | 356 kts | 290° |
| 2026-05-05 09:40 | 41.33542 | 1.45995 | 19182 ft | 358 kts | 290° |
| 2026-05-05 09:40 | 41.34641 | 1.43007 | 19748 ft | 361 kts | 290° |
| 2026-05-05 09:40 | 41.35733 | 1.40038 | 20320 ft | 363 kts | 289° |
| 2026-05-05 09:41 | 41.36844 | 1.37015 | 20888 ft | 364 kts | 289° |
| 2026-05-05 09:41 | 41.37960 | 1.33977 | 21419 ft | 367 kts | 289° |
| 2026-05-05 09:41 | 41.39085 | 1.30919 | 21966 ft | 369 kts | 289° |
| 2026-05-05 09:41 | 41.40214 | 1.27846 | 22492 ft | 370 kts | 289° |
| 2026-05-05 09:42 | 41.41347 | 1.24753 | 22995 ft | 372 kts | 289° |
| 2026-05-05 09:42 | 41.42482 | 1.21642 | 23480 ft | 374 kts | 289° |
| 2026-05-05 09:42 | 41.43622 | 1.18518 | 23955 ft | 375 kts | 288° |
| 2026-05-05 09:42 | 41.44769 | 1.15382 | 24412 ft | 377 kts | 288° |
| 2026-05-05 09:43 | 41.45919 | 1.12238 | 24836 ft | 379 kts | 288° |
| 2026-05-05 09:43 | 41.47078 | 1.09065 | 25256 ft | 381 kts | 288° |
| 2026-05-05 09:43 | 41.48235 | 1.05892 | 25652 ft | 382 kts | 288° |
| 2026-05-05 09:43 | 41.49399 | 1.02696 | 26028 ft | 384 kts | 288° |
| 2026-05-05 09:44 | 41.50565 | 0.99480 | 26401 ft | 386 kts | 288° |
| 2026-05-05 09:44 | 41.51734 | 0.96251 | 26783 ft | 387 kts | 288° |
| 2026-05-05 09:44 | 41.52904 | 0.93011 | 27158 ft | 388 kts | 288° |
| 2026-05-05 09:44 | 41.54075 | 0.89761 | 27521 ft | 389 kts | 288° |
| 2026-05-05 09:45 | 41.55251 | 0.86499 | 27861 ft | 391 kts | 287° |
| 2026-05-05 09:45 | 41.56432 | 0.83223 | 28192 ft | 392 kts | 287° |
| 2026-05-05 09:45 | 41.57617 | 0.79936 | 28516 ft | 393 kts | 287° |
| 2026-05-05 09:45 | 41.58806 | 0.76640 | 28832 ft | 394 kts | 287° |
| 2026-05-05 09:46 | 41.59997 | 0.73330 | 29118 ft | 396 kts | 287° |
| 2026-05-05 09:46 | 41.61187 | 0.70010 | 29394 ft | 398 kts | 287° |
| 2026-05-05 09:46 | 41.62383 | 0.66669 | 29667 ft | 399 kts | 287° |
| 2026-05-05 09:46 | 41.63583 | 0.63316 | 29943 ft | 400 kts | 287° |
| 2026-05-05 09:47 | 41.64788 | 0.59954 | 30209 ft | 402 kts | 287° |
| 2026-05-05 09:47 | 41.65995 | 0.56581 | 30466 ft | 402 kts | 287° |
| 2026-05-05 09:47 | 41.67206 | 0.53195 | 30691 ft | 404 kts | 287° |
| 2026-05-05 09:47 | 41.68421 | 0.49797 | 30903 ft | 406 kts | 287° |
| 2026-05-05 09:48 | 41.69642 | 0.46381 | 31105 ft | 408 kts | 287° |
| 2026-05-05 09:48 | 41.70859 | 0.42968 | 31394 ft | 407 kts | 286° |
| 2026-05-05 09:48 | 41.72072 | 0.39550 | 31693 ft | 406 kts | 286° |
| 2026-05-05 09:48 | 41.73279 | 0.36135 | 31966 ft | 406 kts | 286° |
| 2026-05-05 09:49 | 41.74481 | 0.32716 | 32236 ft | 405 kts | 284° |
| 2026-05-05 09:49 | 41.75418 | 0.29263 | 32492 ft | 398 kts | 279° |
| 2026-05-05 09:49 | 41.76254 | 0.25729 | 32738 ft | 398 kts | 279° |
| 2026-05-05 09:49 | 41.77087 | 0.22194 | 32931 ft | 398 kts | 279° |
| 2026-05-05 09:50 | 41.78731 | 0.15248 | 32977 ft | 386 kts | 279° |
| 2026-05-05 09:50 | 41.80340 | 0.08409 | 32986 ft | 384 kts | 278° |
| 2026-05-05 09:51 | 41.81929 | 0.01590 | 32994 ft | 383 kts | 278° |
| 2026-05-05 09:51 | 41.83509 | -0.05238 | 32992 ft | 384 kts | 279° |
| 2026-05-05 09:52 | 41.85104 | -0.12080 | 32998 ft | 385 kts | 280° |
| 2026-05-05 09:52 | 41.86695 | -0.18928 | 32997 ft | 384 kts | 280° |
| 2026-05-05 09:53 | 41.88278 | -0.25775 | 32992 ft | 384 kts | 280° |
| 2026-05-05 09:53 | 41.89840 | -0.32623 | 32988 ft | 384 kts | 280° |
| 2026-05-05 09:54 | 41.91412 | -0.39482 | 32994 ft | 385 kts | 280° |
| 2026-05-05 09:54 | 41.92995 | -0.46346 | 32995 ft | 385 kts | 280° |
| 2026-05-05 09:55 | 41.94575 | -0.53214 | 32994 ft | 385 kts | 280° |
| 2026-05-05 09:55 | 41.96149 | -0.60085 | 32992 ft | 385 kts | 280° |
| 2026-05-05 09:56 | 41.97702 | -0.66959 | 32988 ft | 385 kts | 280° |
| 2026-05-05 09:56 | 41.99262 | -0.73839 | 32979 ft | 385 kts | 280° |
| 2026-05-05 09:57 | 42.00820 | -0.80722 | 32989 ft | 385 kts | 280° |
| 2026-05-05 09:57 | 42.02365 | -0.87588 | 32962 ft | 388 kts | 280° |
| 2026-05-05 09:58 | 42.03927 | -0.94562 | 32969 ft | 390 kts | 280° |
| 2026-05-05 09:58 | 42.05487 | -1.01569 | 32966 ft | 392 kts | 280° |
| 2026-05-05 09:59 | 42.07060 | -1.08606 | 32974 ft | 393 kts | 280° |
| 2026-05-05 09:59 | 42.08622 | -1.15656 | 32975 ft | 393 kts | 280° |
| 2026-05-05 10:00 | 42.10181 | -1.22713 | 32983 ft | 393 kts | 280° |
| 2026-05-05 10:00 | 42.11738 | -1.29781 | 32988 ft | 394 kts | 280° |
| 2026-05-05 10:01 | 42.13289 | -1.36839 | 32999 ft | 393 kts | 280° |
| 2026-05-05 10:01 | 42.14838 | -1.43896 | 33001 ft | 393 kts | 280° |
| 2026-05-05 10:02 | 42.16382 | -1.50948 | 33003 ft | 392 kts | 280° |
| 2026-05-05 10:02 | 42.17920 | -1.57991 | 33003 ft | 391 kts | 279° |
| 2026-05-05 10:03 | 42.19440 | -1.64977 | 33004 ft | 390 kts | 279° |
| 2026-05-05 10:03 | 42.20952 | -1.72001 | 33000 ft | 390 kts | 279° |
| 2026-05-05 10:04 | 42.22463 | -1.79008 | 32999 ft | 389 kts | 279° |
| 2026-05-05 10:04 | 42.23973 | -1.86018 | 32995 ft | 389 kts | 279° |
| 2026-05-05 10:05 | 42.25471 | -1.93038 | 33000 ft | 389 kts | 279° |
| 2026-05-05 10:05 | 42.26966 | -2.00062 | 33002 ft | 389 kts | 279° |
| 2026-05-05 10:06 | 42.28462 | -2.07089 | 33001 ft | 389 kts | 279° |
| 2026-05-05 10:06 | 42.29957 | -2.14111 | 32990 ft | 389 kts | 279° |
| 2026-05-05 10:07 | 42.31441 | -2.21122 | 32977 ft | 389 kts | 279° |
| 2026-05-05 10:07 | 42.32670 | -2.26972 | 32977 ft | 390 kts | 279° |
| 2026-05-05 10:08 | 42.34150 | -2.34027 | 32982 ft | 390 kts | 279° |
| 2026-05-05 10:08 | 42.35632 | -2.41098 | 32976 ft | 391 kts | 279° |
| 2026-05-05 10:09 | 42.37114 | -2.48199 | 32975 ft | 393 kts | 279° |
| 2026-05-05 10:09 | 42.38591 | -2.55316 | 32983 ft | 393 kts | 279° |
| 2026-05-05 10:10 | 42.40066 | -2.62436 | 32979 ft | 394 kts | 280° |
| 2026-05-05 10:10 | 42.41541 | -2.69577 | 32980 ft | 394 kts | 280° |
| 2026-05-05 10:11 | 42.43012 | -2.76735 | 32986 ft | 395 kts | 280° |
| 2026-05-05 10:11 | 42.44478 | -2.83916 | 32988 ft | 396 kts | 280° |
| 2026-05-05 10:12 | 42.45674 | -2.91176 | 32992 ft | 394 kts | 274° |
| 2026-05-05 10:12 | 42.46476 | -2.98474 | 32982 ft | 395 kts | 274° |
| 2026-05-05 10:13 | 42.47289 | -3.05888 | 32992 ft | 396 kts | 274° |
| 2026-05-05 10:13 | 42.48087 | -3.13226 | 32998 ft | 397 kts | 274° |
| 2026-05-05 10:14 | 42.48881 | -3.20628 | 32997 ft | 398 kts | 274° |
| 2026-05-05 10:14 | 42.49678 | -3.28054 | 33000 ft | 399 kts | 274° |
| 2026-05-05 10:15 | 42.50471 | -3.35500 | 33009 ft | 400 kts | 274° |
| 2026-05-05 10:15 | 42.51259 | -3.42955 | 33013 ft | 399 kts | 274° |
| 2026-05-05 10:16 | 42.52043 | -3.50408 | 33014 ft | 399 kts | 274° |
| 2026-05-05 10:16 | 42.52819 | -3.57863 | 33017 ft | 399 kts | 274° |
| 2026-05-05 10:17 | 42.53596 | -3.65312 | 33014 ft | 399 kts | 274° |
| 2026-05-05 10:17 | 42.54373 | -3.72774 | 33015 ft | 400 kts | 275° |
| 2026-05-05 10:18 | 42.55138 | -3.80242 | 33018 ft | 400 kts | 274° |
| 2026-05-05 10:18 | 42.55896 | -3.87715 | 33021 ft | 400 kts | 274° |
| 2026-05-05 10:19 | 42.56651 | -3.95190 | 33019 ft | 400 kts | 274° |
| 2026-05-05 10:19 | 42.57398 | -4.02668 | 33023 ft | 400 kts | 274° |
| 2026-05-05 10:20 | 42.58148 | -4.10155 | 33020 ft | 401 kts | 275° |
| 2026-05-05 10:20 | 42.58891 | -4.17648 | 33021 ft | 401 kts | 275° |
| 2026-05-05 10:21 | 42.59630 | -4.25160 | 33020 ft | 402 kts | 275° |
| 2026-05-05 10:21 | 42.60360 | -4.32679 | 33023 ft | 402 kts | 275° |
| 2026-05-05 10:22 | 42.61090 | -4.40209 | 33022 ft | 402 kts | 275° |
| 2026-05-05 10:22 | 42.61812 | -4.47698 | 33021 ft | 403 kts | 275° |
| 2026-05-05 10:23 | 42.62542 | -4.55296 | 33019 ft | 403 kts | 275° |
| 2026-05-05 10:23 | 42.63262 | -4.62854 | 33018 ft | 404 kts | 275° |
| 2026-05-05 10:24 | 42.63968 | -4.70362 | 33016 ft | 404 kts | 275° |
| 2026-05-05 10:24 | 42.64681 | -4.77988 | 33017 ft | 405 kts | 275° |
| 2026-05-05 10:25 | 42.65383 | -4.85533 | 33017 ft | 405 kts | 275° |
| 2026-05-05 10:25 | 42.66083 | -4.93136 | 33016 ft | 406 kts | 275° |
| 2026-05-05 10:26 | 42.66781 | -5.00749 | 33017 ft | 406 kts | 275° |
| 2026-05-05 10:26 | 42.67473 | -5.08361 | 33017 ft | 406 kts | 275° |
| 2026-05-05 10:27 | 42.68157 | -5.15988 | 33016 ft | 407 kts | 275° |
| 2026-05-05 10:27 | 42.68834 | -5.23622 | 33018 ft | 407 kts | 275° |
| 2026-05-05 10:28 | 42.69506 | -5.31266 | 33022 ft | 407 kts | 275° |
| 2026-05-05 10:28 | 42.70174 | -5.38913 | 33024 ft | 407 kts | 275° |
| 2026-05-05 10:29 | 42.70840 | -5.46563 | 33024 ft | 407 kts | 275° |
| 2026-05-05 10:29 | 42.71504 | -5.54203 | 33022 ft | 407 kts | 275° |
| 2026-05-05 10:30 | 42.72164 | -5.61828 | 33020 ft | 407 kts | 275° |
| 2026-05-05 10:30 | 42.72814 | -5.69438 | 33017 ft | 406 kts | 275° |
| 2026-05-05 10:31 | 42.73466 | -5.77073 | 33017 ft | 406 kts | 275° |
| 2026-05-05 10:31 | 42.74101 | -5.84717 | 33021 ft | 407 kts | 275° |
| 2026-05-05 10:32 | 42.74737 | -5.92354 | 33020 ft | 407 kts | 275° |
| 2026-05-05 10:32 | 42.75375 | -6.00011 | 33019 ft | 407 kts | 275° |
| 2026-05-05 10:33 | 42.76007 | -6.07667 | 33021 ft | 407 kts | 275° |
| 2026-05-05 10:33 | 42.76631 | -6.15335 | 33023 ft | 408 kts | 275° |
| 2026-05-05 10:34 | 42.77251 | -6.23005 | 33028 ft | 408 kts | 275° |
| 2026-05-05 10:34 | 42.77860 | -6.30683 | 33024 ft | 408 kts | 275° |
| 2026-05-05 10:35 | 42.78466 | -6.38360 | 33031 ft | 408 kts | 275° |
| 2026-05-05 10:35 | 42.79059 | -6.46042 | 33030 ft | 408 kts | 275° |
| 2026-05-05 10:36 | 42.79646 | -6.53666 | 32822 ft | 405 kts | 276° |
| 2026-05-05 10:36 | 42.79938 | -6.57463 | 32571 ft | 401 kts | 276° |
| 2026-05-05 10:36 | 42.80230 | -6.61230 | 32321 ft | 399 kts | 276° |
| 2026-05-05 10:37 | 42.80520 | -6.64975 | 32070 ft | 397 kts | 276° |
| 2026-05-05 10:37 | 42.80807 | -6.68708 | 31820 ft | 396 kts | 276° |
| 2026-05-05 10:37 | 42.81091 | -6.72425 | 31570 ft | 394 kts | 276° |
| 2026-05-05 10:37 | 42.81371 | -6.76112 | 31205 ft | 389 kts | 276° |
| 2026-05-05 10:38 | 42.81646 | -6.79764 | 30696 ft | 386 kts | 276° |
| 2026-05-05 10:38 | 42.81915 | -6.83390 | 30188 ft | 383 kts | 276° |
| 2026-05-05 10:38 | 42.82181 | -6.86993 | 29691 ft | 381 kts | 276° |
| 2026-05-05 10:38 | 42.82455 | -6.90569 | 29132 ft | 379 kts | 278° |
| 2026-05-05 10:39 | 42.83201 | -6.94051 | 28108 ft | 390 kts | 296° |
| 2026-05-05 10:39 | 42.84700 | -6.97176 | 27148 ft | 398 kts | 306° |
| 2026-05-05 10:39 | 42.86377 | -7.00231 | 26102 ft | 407 kts | 306° |
| 2026-05-05 10:39 | 42.88077 | -7.03324 | 25351 ft | 407 kts | 306° |
| 2026-05-05 10:40 | 42.89768 | -7.06406 | 24709 ft | 404 kts | 306° |
| 2026-05-05 10:40 | 42.91440 | -7.09465 | 24085 ft | 400 kts | 306° |
| 2026-05-05 10:40 | 42.93094 | -7.12506 | 23468 ft | 397 kts | 306° |
| 2026-05-05 10:40 | 42.94731 | -7.15523 | 22867 ft | 394 kts | 306° |
| 2026-05-05 10:41 | 42.96354 | -7.18516 | 22300 ft | 391 kts | 306° |
| 2026-05-05 10:41 | 42.97961 | -7.21480 | 21734 ft | 388 kts | 306° |
| 2026-05-05 10:41 | 42.99560 | -7.24426 | 21168 ft | 385 kts | 306° |
| 2026-05-05 10:41 | 43.01147 | -7.27353 | 20642 ft | 382 kts | 306° |
| 2026-05-05 10:42 | 43.04283 | -7.33148 | 19611 ft | 376 kts | 306° |
| 2026-05-05 10:42 | 43.05831 | -7.36016 | 19093 ft | 373 kts | 306° |
| 2026-05-05 10:42 | 43.07367 | -7.38867 | 18584 ft | 371 kts | 306° |
| 2026-05-05 10:43 | 43.08891 | -7.41701 | 18072 ft | 369 kts | 306° |
| 2026-05-05 10:43 | 43.10406 | -7.44519 | 17565 ft | 366 kts | 306° |
| 2026-05-05 10:43 | 43.11907 | -7.47312 | 17068 ft | 364 kts | 306° |
| 2026-05-05 10:43 | 43.13401 | -7.50095 | 16569 ft | 361 kts | 306° |
| 2026-05-05 10:44 | 43.14865 | -7.52820 | 16079 ft | 359 kts | 306° |
| 2026-05-05 10:44 | 43.16334 | -7.55558 | 15579 ft | 356 kts | 306° |
| 2026-05-05 10:44 | 43.17795 | -7.58287 | 15061 ft | 354 kts | 306° |
| 2026-05-05 10:44 | 43.19243 | -7.60997 | 14568 ft | 352 kts | 306° |
| 2026-05-05 10:45 | 43.20632 | -7.63599 | 14286 ft | 331 kts | 306° |
| 2026-05-05 10:45 | 43.21971 | -7.66104 | 13638 ft | 322 kts | 306° |
| 2026-05-05 10:45 | 43.23266 | -7.68523 | 13249 ft | 308 kts | 306° |
| 2026-05-05 10:45 | 43.24528 | -7.70883 | 12873 ft | 305 kts | 306° |
| 2026-05-05 10:46 | 43.25778 | -7.73229 | 12487 ft | 304 kts | 306° |
| 2026-05-05 10:46 | 43.27016 | -7.75557 | 12212 ft | 298 kts | 306° |
| 2026-05-05 10:46 | 43.28213 | -7.77809 | 11929 ft | 287 kts | 306° |
| 2026-05-05 10:46 | 43.29382 | -7.80006 | 11383 ft | 284 kts | 306° |
| 2026-05-05 10:47 | 43.30543 | -7.82194 | 10986 ft | 283 kts | 306° |
| 2026-05-05 10:47 | 43.31700 | -7.84377 | 10612 ft | 282 kts | 306° |
| 2026-05-05 10:47 | 43.32852 | -7.86554 | 10234 ft | 281 kts | 306° |
| 2026-05-05 10:47 | 43.33999 | -7.88722 | 9857 ft | 281 kts | 306° |
| 2026-05-05 10:48 | 43.35144 | -7.90886 | 9473 ft | 280 kts | 306° |
| 2026-05-05 10:48 | 43.36287 | -7.93045 | 9085 ft | 279 kts | 306° |
| 2026-05-05 10:48 | 43.37424 | -7.95188 | 8719 ft | 275 kts | 306° |
| 2026-05-05 10:48 | 43.38524 | -7.97268 | 8344 ft | 263 kts | 306° |
| 2026-05-05 10:49 | 43.39574 | -7.99259 | 7969 ft | 252 kts | 306° |
| 2026-05-05 10:49 | 43.40585 | -8.01170 | 7608 ft | 245 kts | 306° |
| 2026-05-05 10:49 | 43.41591 | -8.03068 | 7238 ft | 246 kts | 306° |
| 2026-05-05 10:49 | 43.42588 | -8.04954 | 6873 ft | 241 kts | 306° |
| 2026-05-05 10:50 | 43.43563 | -8.06797 | 6501 ft | 236 kts | 306° |
| 2026-05-05 10:50 | 43.44513 | -8.08603 | 6140 ft | 231 kts | 306° |
| 2026-05-05 10:50 | 43.45441 | -8.10367 | 5792 ft | 225 kts | 306° |
| 2026-05-05 10:50 | 43.46349 | -8.12099 | 5427 ft | 219 kts | 305° |
| 2026-05-05 10:51 | 43.47220 | -8.13764 | 5090 ft | 210 kts | 305° |
| 2026-05-05 10:51 | 43.48059 | -8.15368 | 4788 ft | 202 kts | 305° |
| 2026-05-05 10:51 | 43.48853 | -8.16879 | 4777 ft | 186 kts | 303° |
| 2026-05-05 10:51 | 43.49379 | -8.18466 | 4693 ft | 183 kts | 282° |
| 2026-05-05 10:52 | 43.49410 | -8.20198 | 4504 ft | 181 kts | 260° |
| 2026-05-05 10:52 | 43.48944 | -8.21805 | 4333 ft | 182 kts | 238° |
| 2026-05-05 10:52 | 43.48042 | -8.23030 | 4143 ft | 185 kts | 216° |
| 2026-05-05 10:52 | 43.46952 | -8.23931 | 3904 ft | 180 kts | 214° |
| 2026-05-05 10:53 | 43.45894 | -8.24801 | 3680 ft | 174 kts | 214° |
| 2026-05-05 10:53 | 43.44868 | -8.25648 | 3452 ft | 170 kts | 214° |
| 2026-05-05 10:53 | 43.44202 | -8.26199 | 3305 ft | 168 kts | 214° |
| 2026-05-05 10:53 | 43.42910 | -8.27265 | 3012 ft | 158 kts | 214° |
| 2026-05-05 10:54 | 43.42008 | -8.28008 | 2824 ft | 144 kts | 215° |
| 2026-05-05 10:54 | 43.41161 | -8.28707 | 2627 ft | 140 kts | 215° |
| 2026-05-05 10:54 | 43.40328 | -8.29394 | 2449 ft | 139 kts | 215° |
| 2026-05-05 10:54 | 43.39497 | -8.30079 | 2258 ft | 139 kts | 215° |
| 2026-05-05 10:55 | 43.38935 | -8.30543 | 2134 ft | 140 kts | 214° |
| 2026-05-05 10:55 | 43.38094 | -8.31238 | 1947 ft | 141 kts | 214° |
| 2026-05-05 10:55 | 43.37251 | -8.31932 | 1762 ft | 142 kts | 214° |
| 2026-05-05 10:55 | 43.36403 | -8.32630 | 1572 ft | 142 kts | 214° |
| 2026-05-05 10:56 | 43.35553 | -8.33332 | 1377 ft | 143 kts | 214° |
| 2026-05-05 10:56 | 43.34696 | -8.34034 | 1185 ft | 144 kts | 214° |
| 2026-05-05 10:56 | 43.33840 | -8.34740 | 1002 ft | 144 kts | 214° |
| 2026-05-05 10:56 | 43.32984 | -8.35442 | 780 ft | 143 kts | 213° |
| 2026-05-05 10:57 | 43.32135 | -8.36139 | 595 ft | 141 kts | 213° |
| 2026-05-05 10:57 | 43.31302 | -8.36826 | 400 ft | 141 kts | 214° |
| 2026-05-05 10:57 | 43.30468 | -8.37511 | 275 ft | 133 kts | 210° |
| 2026-05-05 10:57 | 43.29879 | -8.37994 | 274 ft | 64 kts | 210° |
| 2026-05-05 10:58 | 43.29554 | -8.38261 | 270 ft | 48 kts | 211° |
| 2026-05-05 10:58 | 43.29336 | -8.38441 | 270 ft | 24 kts | 211° |
| 2026-05-05 10:58 | 43.29260 | -8.38536 | 271 ft | 13 kts | 240° |
| 2026-05-05 10:58 | 43.29221 | -8.38553 | 271 ft | 7 kts | 86° |
| 2026-05-05 10:59 | 43.29271 | -8.38493 | 271 ft | 14 kts | 31° |
| 2026-05-05 10:59 | 43.29378 | -8.38407 | 270 ft | 22 kts | 30° |
| 2026-05-05 10:59 | 43.29529 | -8.38284 | 270 ft | 27 kts | 31° |
| 2026-05-05 10:59 | 43.29694 | -8.38148 | 271 ft | 28 kts | 31° |
| 2026-05-05 11:00 | 43.29852 | -8.38018 | 273 ft | 23 kts | 31° |
| 2026-05-05 11:00 | 43.29943 | -8.38000 | 274 ft | 13 kts | 323° |
| 2026-05-05 11:00 | 43.30002 | -8.38069 | 273 ft | 11 kts | 343° |
| 2026-05-05 11:00 | 43.30076 | -8.38070 | 274 ft | 10 kts | 14° |
| 2026-05-05 11:01 | 43.30135 | -8.38025 | 275 ft | 9 kts | 31° |
| 2026-05-05 11:01 | 43.30184 | -8.37984 | 275 ft | 8 kts | 32° |
| 2026-05-05 11:01 | 43.30225 | -8.37949 | 276 ft | 6 kts | 31° |
| 2026-05-05 11:01 | 43.30259 | -8.37934 | 277 ft | 4 kts | 342° |
| 2026-05-05 11:02 | 43.30274 | -8.37961 | 276 ft | 3 kts | 301° |
| 2026-05-05 11:02 | 43.30282 | -8.37980 | 274 ft | 1 kts | 301° |